CST,Max TemperatureF,Mean TemperatureF,Min TemperatureF,Max Dew PointF,MeanDew PointF,Min DewpointF,Max Humidity, Mean Humidity, Min Humidity, Max Sea Level PressureIn, Mean Sea Level PressureIn, Min Sea Level PressureIn, Max VisibilityMiles, Mean VisibilityMiles, Min VisibilityMiles, Max Wind SpeedMPH, Mean Wind SpeedMPH, Max Gust SpeedMPH,PrecipitationIn, CloudCover, Events, WindDirDegrees
2014-2-1,70,56,41,58,49,39,96,75,53,30.06,30.02,29.99,10,10,6,15,8,20,0.00,7,,160
2014-2-2,69,54,38,65,55,36,100,92,84,30.06,29.96,29.86,10,6,0,17,9,28,1.50,8,Fog-Rain-Thunderstorm,193
2014-2-3,41,38,34,37,35,32,96,88,79,30.24,30.17,30.06,10,9,3,18,9,25,0.05,8,Rain,9
2014-2-4,66,53,39,61,43,36,100,90,80,30.12,29.95,29.76,10,6,0,25,9,33,0.43,8,Fog-Rain-Thunderstorm,106
2014-2-5,41,36,30,37,30,22,100,83,65,30.41,30.26,30.04,10,10,7,20,12,33,0.00,8,,331
2014-2-6,37,32,26,25,23,21,85,72,59,30.51,30.40,30.35,10,10,9,18,10,24,T,7,Snow,360
2014-2-7,49,37,24,31,26,21,88,71,53,30.43,30.34,30.21,10,10,10,12,7,17,T,6,Rain,2
2014-2-8,56,45,33,40,36,29,96,76,55,30.28,30.20,30.13,10,9,6,12,2,14,0.07,6,Rain,59
2014-2-9,63,50,36,47,42,35,92,74,56,30.19,30.12,30.07,10,9,6,13,4,16,0.00,5,,251
2014-2-10,44,40,35,40,36,33,92,84,76,30.21,30.16,30.10,10,7,2,16,10,20,0.42,8,Rain,9
2014-2-11,35,34,32,34,31,30,96,93,89,30.24,30.18,30.09,10,6,3,16,11,21,0.73,8,Rain,19
2014-2-12,37,34,31,34,32,30,100,95,89,30.09,30.01,29.93,8,3,0,16,9,20,0.20,8,Fog-Rain,341
2014-2-13,53,40,26,32,29,24,100,71,41,30.08,30.01,29.96,10,7,2,12,3,16,0.00,2,,285
2014-2-14,62,47,31,50,41,28,96,76,56,30.00,29.89,29.76,10,10,10,22,9,29,0.08,5,Rain,215
2014-2-15,56,43,30,33,29,25,85,58,30,30.24,30.14,30.05,10,10,10,22,5,26,0.00,0,,18
2014-2-16,70,52,33,45,38,29,89,60,31,30.18,30.12,30.07,10,10,10,10,3,13,0.00,1,,189
2014-2-17,73,62,51,58,54,50,100,79,57,30.11,30.08,30.01,10,8,0,20,6,23,0.00,6,Fog,188
2014-2-18,74,61,47,63,54,46,100,79,57,30.14,30.08,29.99,10,4,0,17,6,24,0.00,5,Fog,184
2014-2-19,79,68,57,61,58,53,100,71,42,30.08,30.00,29.91,10,9,3,16,8,22,0.00,5,,182
2014-2-20,82,68,54,66,60,41,93,68,42,29.98,29.86,29.77,10,8,1,31,16,43,1.75,7,Rain-Thunderstorm,195
2014-2-21,62,50,37,41,31,20,85,52,19,30.14,30.10,30.02,10,10,10,21,4,28,T,1,,2
2014-2-22,68,52,36,38,34,28,92,59,26,30.17,30.08,30.00,10,10,10,16,5,21,0.00,4,,152
2014-2-23,68,56,43,56,49,36,93,78,63,30.07,30.01,29.96,10,10,10,16,2,21,0.00,7,,39
2014-2-24,66,58,49,47,43,38,83,63,42,30.19,30.12,30.07,10,10,10,14,6,18,0.00,5,,26
2014-2-25,58,54,50,50,45,37,89,72,55,30.13,30.04,29.98,10,10,5,16,4,21,0.06,7,Rain,10
2014-2-26,52,41,30,48,30,19,89,70,51,30.13,30.07,29.97,10,9,5,25,13,31,0.15,7,Rain,355
2014-2-27,52,37,21,24,19,13,92,57,21,30.16,30.09,30.03,10,10,10,12,2,16,0.00,0,,344
2014-2-28,62,45,28,42,27,19,78,51,23,30.08,30.02,29.94,10,10,10,20,8,24,T,5,,154